<?xml version="1.0" encoding="UTF-8"?>
<gpx version="1.1" creator="2bulu-scraper" xmlns="http://www.topografix.com/GPX/1/1">
  <metadata><name>泸县龙贯山流杯池环线</name><desc>source: 2bulu.com trackId=74728033; exported 2026-09-01T14:47:13.805Z</desc>
    <bounds minlat="29.1201246" minlon="105.2464108" maxlat="29.1326374" maxlon="105.2648901"/>
    <link href="https://www.2bulu.com/track/t-n6Z6eY2%252FiFHp%252FR2KBg5Tzw%253D%253D.htm"><text>2bulu 源页面</text></link>
  </metadata>
  <wpt lat="29.1222952" lon="105.26009"><ele>286</ele><name>
        </name></wpt>
  <wpt lat="29.1205479" lon="105.2637067"><ele>284</ele><name>
        </name></wpt>
  <wpt lat="29.1201256" lon="105.2648124"><ele>286</ele><name>
        </name></wpt>
  <wpt lat="29.1225555" lon="105.2492169"><ele>403</ele><name>
        </name></wpt>
  <wpt lat="29.1221887" lon="105.2465859"><ele>427</ele><name>
        </name></wpt>
  <wpt lat="29.1221154" lon="105.2465128"><ele>428</ele><name>
        </name></wpt>
  <wpt lat="29.1224088" lon="105.2466189"><ele>436</ele><name>
        </name></wpt>
  <wpt lat="29.123346" lon="105.2473049"><ele>469</ele><name>
        </name></wpt>
  <wpt lat="29.1319378" lon="105.2501066"><ele>409</ele><name>
        </name></wpt>
  <trk><name>泸县龙贯山流杯池环线</name>
      <trkseg>
        <trkpt lat="29.1222952" lon="105.26009"><ele>286.26</ele><time>2025-11-15T17:00:13.000Z</time></trkpt>
        <trkpt lat="29.1223459" lon="105.2600749"><ele>286.26</ele><time>2025-11-15T17:00:52.000Z</time></trkpt>
        <trkpt lat="29.1204742" lon="105.263942"><ele>286.64</ele><time>2025-11-15T17:03:39.000Z</time></trkpt>
        <trkpt lat="29.1204162" lon="105.2640226"><ele>289.83</ele><time>2025-11-15T17:04:33.000Z</time></trkpt>
        <trkpt lat="29.1203263" lon="105.2640015"><ele>289.03</ele><time>2025-11-15T17:05:44.000Z</time></trkpt>
        <trkpt lat="29.1204092" lon="105.2640466"><ele>286.19</ele><time>2025-11-15T17:06:16.000Z</time></trkpt>
        <trkpt lat="29.1203601" lon="105.2639384"><ele>284.94</ele><time>2025-11-15T17:09:21.000Z</time></trkpt>
        <trkpt lat="29.1202972" lon="105.2638575"><ele>284.49</ele><time>2025-11-15T17:09:31.000Z</time></trkpt>
        <trkpt lat="29.1203098" lon="105.2637606"><ele>284.86</ele><time>2025-11-15T17:09:49.000Z</time></trkpt>
        <trkpt lat="29.1203877" lon="105.263714"><ele>283.47</ele><time>2025-11-15T17:10:03.000Z</time></trkpt>
        <trkpt lat="29.1204894" lon="105.2636902"><ele>283.55</ele><time>2025-11-15T17:10:17.000Z</time></trkpt>
        <trkpt lat="29.120557" lon="105.2636169"><ele>283.29</ele><time>2025-11-15T17:10:27.000Z</time></trkpt>
        <trkpt lat="29.120546" lon="105.2636657"><ele>284.08</ele><time>2025-11-15T17:10:36.000Z</time></trkpt>
        <trkpt lat="29.1205447" lon="105.2637082"><ele>285.84</ele><time>2025-11-15T17:10:40.000Z</time></trkpt>
        <trkpt lat="29.1206059" lon="105.2636996"><ele>287.57</ele><time>2025-11-15T17:10:54.000Z</time></trkpt>
        <trkpt lat="29.1205625" lon="105.263776"><ele>287.63</ele><time>2025-11-15T17:16:35.000Z</time></trkpt>
        <trkpt lat="29.1206019" lon="105.2636792"><ele>287.05</ele><time>2025-11-15T17:17:19.000Z</time></trkpt>
        <trkpt lat="29.1205579" lon="105.2637741"><ele>287.28</ele><time>2025-11-15T17:22:54.000Z</time></trkpt>
        <trkpt lat="29.120484" lon="105.2638389"><ele>286.94</ele><time>2025-11-15T17:23:10.000Z</time></trkpt>
        <trkpt lat="29.1204335" lon="105.2639396"><ele>286.98</ele><time>2025-11-15T17:23:26.000Z</time></trkpt>
        <trkpt lat="29.1204019" lon="105.2640425"><ele>285.4</ele><time>2025-11-15T17:23:45.000Z</time></trkpt>
        <trkpt lat="29.1203595" lon="105.2641593"><ele>284.71</ele><time>2025-11-15T17:24:04.000Z</time></trkpt>
        <trkpt lat="29.1203391" lon="105.2642798"><ele>282.86</ele><time>2025-11-15T17:24:20.000Z</time></trkpt>
        <trkpt lat="29.1203022" lon="105.2643891"><ele>281.49</ele><time>2025-11-15T17:24:32.000Z</time></trkpt>
        <trkpt lat="29.120264" lon="105.2644923"><ele>280.86</ele><time>2025-11-15T17:24:50.000Z</time></trkpt>
        <trkpt lat="29.1202355" lon="105.2646122"><ele>280.88</ele><time>2025-11-15T17:25:04.000Z</time></trkpt>
        <trkpt lat="29.1201708" lon="105.2647153"><ele>283.11</ele><time>2025-11-15T17:25:20.000Z</time></trkpt>
        <trkpt lat="29.1201256" lon="105.2648124"><ele>284.2</ele><time>2025-11-15T17:25:32.000Z</time></trkpt>
        <trkpt lat="29.120179" lon="105.2648622"><ele>285.18</ele><time>2025-11-15T17:25:54.000Z</time></trkpt>
        <trkpt lat="29.1202723" lon="105.2648532"><ele>286.3</ele><time>2025-11-15T17:26:08.000Z</time></trkpt>
        <trkpt lat="29.1203125" lon="105.2648391"><ele>287.46</ele><time>2025-11-15T17:26:10.000Z</time></trkpt>
        <trkpt lat="29.1203928" lon="105.2647943"><ele>287.92</ele><time>2025-11-15T17:26:22.000Z</time></trkpt>
        <trkpt lat="29.1204766" lon="105.2647334"><ele>289.42</ele><time>2025-11-15T17:26:36.000Z</time></trkpt>
        <trkpt lat="29.120562" lon="105.2646711"><ele>290.85</ele><time>2025-11-15T17:26:50.000Z</time></trkpt>
        <trkpt lat="29.1206608" lon="105.264667"><ele>293.15</ele><time>2025-11-15T17:27:04.000Z</time></trkpt>
        <trkpt lat="29.1207496" lon="105.2647161"><ele>294.6</ele><time>2025-11-15T17:27:16.000Z</time></trkpt>
        <trkpt lat="29.1208295" lon="105.2647954"><ele>296.59</ele><time>2025-11-15T17:27:28.000Z</time></trkpt>
        <trkpt lat="29.1209199" lon="105.2648403"><ele>297.46</ele><time>2025-11-15T17:27:39.000Z</time></trkpt>
        <trkpt lat="29.1210089" lon="105.2648806"><ele>299.34</ele><time>2025-11-15T17:27:55.000Z</time></trkpt>
        <trkpt lat="29.1210963" lon="105.2648623"><ele>300.45</ele><time>2025-11-15T17:28:07.000Z</time></trkpt>
        <trkpt lat="29.1211847" lon="105.2648107"><ele>301.04</ele><time>2025-11-15T17:28:19.000Z</time></trkpt>
        <trkpt lat="29.1212669" lon="105.264738"><ele>301.65</ele><time>2025-11-15T17:28:33.000Z</time></trkpt>
        <trkpt lat="29.1213567" lon="105.2646679"><ele>303.03</ele><time>2025-11-15T17:28:47.000Z</time></trkpt>
        <trkpt lat="29.1214472" lon="105.2646236"><ele>303.22</ele><time>2025-11-15T17:29:01.000Z</time></trkpt>
        <trkpt lat="29.1215323" lon="105.2645785"><ele>304.03</ele><time>2025-11-15T17:29:13.000Z</time></trkpt>
        <trkpt lat="29.1216152" lon="105.2645277"><ele>304.34</ele><time>2025-11-15T17:29:27.000Z</time></trkpt>
        <trkpt lat="29.1217016" lon="105.2644896"><ele>304.08</ele><time>2025-11-15T17:29:45.000Z</time></trkpt>
        <trkpt lat="29.121777" lon="105.264426"><ele>304.15</ele><time>2025-11-15T17:30:17.000Z</time></trkpt>
        <trkpt lat="29.1218387" lon="105.2643484"><ele>304.06</ele><time>2025-11-15T17:30:35.000Z</time></trkpt>
        <trkpt lat="29.121872" lon="105.2642468"><ele>304.73</ele><time>2025-11-15T17:30:51.000Z</time></trkpt>
        <trkpt lat="29.1218958" lon="105.2641406"><ele>304.93</ele><time>2025-11-15T17:31:03.000Z</time></trkpt>
        <trkpt lat="29.1219061" lon="105.2640276"><ele>305.57</ele><time>2025-11-15T17:31:15.000Z</time></trkpt>
        <trkpt lat="29.1219446" lon="105.2639242"><ele>306.79</ele><time>2025-11-15T17:31:27.000Z</time></trkpt>
        <trkpt lat="29.1220148" lon="105.2638347"><ele>307.42</ele><time>2025-11-15T17:31:41.000Z</time></trkpt>
        <trkpt lat="29.1220987" lon="105.2637691"><ele>307.55</ele><time>2025-11-15T17:31:51.000Z</time></trkpt>
        <trkpt lat="29.1221177" lon="105.2636769"><ele>306.75</ele><time>2025-11-15T17:31:59.000Z</time></trkpt>
        <trkpt lat="29.1220752" lon="105.2635803"><ele>307.18</ele><time>2025-11-15T17:32:09.000Z</time></trkpt>
        <trkpt lat="29.1219989" lon="105.2634881"><ele>308.69</ele><time>2025-11-15T17:32:21.000Z</time></trkpt>
        <trkpt lat="29.1219315" lon="105.2633923"><ele>310.72</ele><time>2025-11-15T17:32:35.000Z</time></trkpt>
        <trkpt lat="29.1219308" lon="105.263294"><ele>310.62</ele><time>2025-11-15T17:32:55.000Z</time></trkpt>
        <trkpt lat="29.1219827" lon="105.2632117"><ele>310.26</ele><time>2025-11-15T17:33:09.000Z</time></trkpt>
        <trkpt lat="29.1220526" lon="105.263129"><ele>311.25</ele><time>2025-11-15T17:33:23.000Z</time></trkpt>
        <trkpt lat="29.1221234" lon="105.2630459"><ele>311.77</ele><time>2025-11-15T17:33:35.000Z</time></trkpt>
        <trkpt lat="29.1222027" lon="105.2629693"><ele>312.48</ele><time>2025-11-15T17:33:47.000Z</time></trkpt>
        <trkpt lat="29.1222677" lon="105.2628809"><ele>312.96</ele><time>2025-11-15T17:34:01.000Z</time></trkpt>
        <trkpt lat="29.1223223" lon="105.2627814"><ele>313.53</ele><time>2025-11-15T17:34:15.000Z</time></trkpt>
        <trkpt lat="29.1223624" lon="105.2626712"><ele>314.73</ele><time>2025-11-15T17:34:27.000Z</time></trkpt>
        <trkpt lat="29.1224009" lon="105.2625574"><ele>315.31</ele><time>2025-11-15T17:34:41.000Z</time></trkpt>
        <trkpt lat="29.1224555" lon="105.2624633"><ele>315.29</ele><time>2025-11-15T17:34:55.000Z</time></trkpt>
        <trkpt lat="29.1225257" lon="105.262386"><ele>316.88</ele><time>2025-11-15T17:35:07.000Z</time></trkpt>
        <trkpt lat="29.1225935" lon="105.2622966"><ele>316.93</ele><time>2025-11-15T17:35:19.000Z</time></trkpt>
        <trkpt lat="29.1226667" lon="105.2622154"><ele>316.67</ele><time>2025-11-15T17:35:31.000Z</time></trkpt>
        <trkpt lat="29.1227475" lon="105.2621433"><ele>315.71</ele><time>2025-11-15T17:35:45.000Z</time></trkpt>
        <trkpt lat="29.1228285" lon="105.2620857"><ele>315.01</ele><time>2025-11-15T17:35:57.000Z</time></trkpt>
        <trkpt lat="29.1228955" lon="105.2620061"><ele>315.39</ele><time>2025-11-15T17:36:09.000Z</time></trkpt>
        <trkpt lat="29.122953" lon="105.2619149"><ele>315.65</ele><time>2025-11-15T17:36:21.000Z</time></trkpt>
        <trkpt lat="29.1230196" lon="105.2618346"><ele>316.23</ele><time>2025-11-15T17:36:31.000Z</time></trkpt>
        <trkpt lat="29.1231056" lon="105.2617901"><ele>316.6</ele><time>2025-11-15T17:36:41.000Z</time></trkpt>
        <trkpt lat="29.1231818" lon="105.2617206"><ele>316.11</ele><time>2025-11-15T17:36:53.000Z</time></trkpt>
        <trkpt lat="29.1232524" lon="105.2616447"><ele>316.47</ele><time>2025-11-15T17:37:05.000Z</time></trkpt>
        <trkpt lat="29.1232955" lon="105.2615459"><ele>316.49</ele><time>2025-11-15T17:37:19.000Z</time></trkpt>
        <trkpt lat="29.123302" lon="105.2614373"><ele>314.51</ele><time>2025-11-15T17:37:31.000Z</time></trkpt>
        <trkpt lat="29.1232868" lon="105.261319"><ele>312.99</ele><time>2025-11-15T17:37:43.000Z</time></trkpt>
        <trkpt lat="29.1232658" lon="105.2612071"><ele>312.71</ele><time>2025-11-15T17:37:55.000Z</time></trkpt>
        <trkpt lat="29.1232449" lon="105.2611002"><ele>313.66</ele><time>2025-11-15T17:38:07.000Z</time></trkpt>
        <trkpt lat="29.123204" lon="105.2610033"><ele>314.32</ele><time>2025-11-15T17:38:17.000Z</time></trkpt>
        <trkpt lat="29.123129" lon="105.2609305"><ele>314.18</ele><time>2025-11-15T17:38:29.000Z</time></trkpt>
        <trkpt lat="29.123036" lon="105.2609245"><ele>313.13</ele><time>2025-11-15T17:38:39.000Z</time></trkpt>
        <trkpt lat="29.1229316" lon="105.2609338"><ele>312.25</ele><time>2025-11-15T17:38:51.000Z</time></trkpt>
        <trkpt lat="29.122825" lon="105.2609468"><ele>311.23</ele><time>2025-11-15T17:39:03.000Z</time></trkpt>
        <trkpt lat="29.1227194" lon="105.2609449"><ele>310.16</ele><time>2025-11-15T17:39:15.000Z</time></trkpt>
        <trkpt lat="29.122624" lon="105.2609535"><ele>309.36</ele><time>2025-11-15T17:39:25.000Z</time></trkpt>
        <trkpt lat="29.1225224" lon="105.2609784"><ele>309.55</ele><time>2025-11-15T17:39:37.000Z</time></trkpt>
        <trkpt lat="29.1224232" lon="105.2610122"><ele>308.82</ele><time>2025-11-15T17:39:47.000Z</time></trkpt>
        <trkpt lat="29.1223266" lon="105.2610344"><ele>309.52</ele><time>2025-11-15T17:39:59.000Z</time></trkpt>
        <trkpt lat="29.1222381" lon="105.2610731"><ele>309.43</ele><time>2025-11-15T17:40:13.000Z</time></trkpt>
        <trkpt lat="29.1221488" lon="105.2611155"><ele>311.7</ele><time>2025-11-15T17:40:25.000Z</time></trkpt>
        <trkpt lat="29.1220706" lon="105.2611854"><ele>313.27</ele><time>2025-11-15T17:40:37.000Z</time></trkpt>
        <trkpt lat="29.1219959" lon="105.2612636"><ele>313.57</ele><time>2025-11-15T17:40:49.000Z</time></trkpt>
        <trkpt lat="29.1219289" lon="105.2613489"><ele>313.82</ele><time>2025-11-15T17:40:59.000Z</time></trkpt>
        <trkpt lat="29.1218649" lon="105.2614266"><ele>313.75</ele><time>2025-11-15T17:41:11.000Z</time></trkpt>
        <trkpt lat="29.1217919" lon="105.2614895"><ele>315.39</ele><time>2025-11-15T17:41:23.000Z</time></trkpt>
        <trkpt lat="29.1217127" lon="105.2615502"><ele>315.55</ele><time>2025-11-15T17:41:41.000Z</time></trkpt>
        <trkpt lat="29.1216383" lon="105.2616169"><ele>315.34</ele><time>2025-11-15T17:41:55.000Z</time></trkpt>
        <trkpt lat="29.1215676" lon="105.2616837"><ele>316.09</ele><time>2025-11-15T17:42:07.000Z</time></trkpt>
        <trkpt lat="29.1214934" lon="105.2617604"><ele>316.88</ele><time>2025-11-15T17:42:21.000Z</time></trkpt>
        <trkpt lat="29.1214255" lon="105.261835"><ele>318.25</ele><time>2025-11-15T17:42:33.000Z</time></trkpt>
        <trkpt lat="29.1213461" lon="105.2619052"><ele>320.57</ele><time>2025-11-15T17:42:47.000Z</time></trkpt>
        <trkpt lat="29.1212541" lon="105.2619441"><ele>322.81</ele><time>2025-11-15T17:43:01.000Z</time></trkpt>
        <trkpt lat="29.1211616" lon="105.2619627"><ele>324.13</ele><time>2025-11-15T17:43:13.000Z</time></trkpt>
        <trkpt lat="29.1210643" lon="105.2619431"><ele>325.44</ele><time>2025-11-15T17:43:27.000Z</time></trkpt>
        <trkpt lat="29.1210604" lon="105.2618577"><ele>326.39</ele><time>2025-11-15T17:43:41.000Z</time></trkpt>
        <trkpt lat="29.1211441" lon="105.2618359"><ele>325.63</ele><time>2025-11-15T17:44:03.000Z</time></trkpt>
        <trkpt lat="29.1212533" lon="105.2618207"><ele>327.75</ele><time>2025-11-15T17:44:13.000Z</time></trkpt>
        <trkpt lat="29.121351" lon="105.2617709"><ele>329.56</ele><time>2025-11-15T17:44:23.000Z</time></trkpt>
        <trkpt lat="29.1214304" lon="105.2616878"><ele>328.76</ele><time>2025-11-15T17:44:35.000Z</time></trkpt>
        <trkpt lat="29.1214951" lon="105.2615918"><ele>327.38</ele><time>2025-11-15T17:44:49.000Z</time></trkpt>
        <trkpt lat="29.1215702" lon="105.2615082"><ele>327.05</ele><time>2025-11-15T17:45:01.000Z</time></trkpt>
        <trkpt lat="29.1216492" lon="105.2614354"><ele>326.16</ele><time>2025-11-15T17:45:13.000Z</time></trkpt>
        <trkpt lat="29.1217306" lon="105.2613613"><ele>325.57</ele><time>2025-11-15T17:45:25.000Z</time></trkpt>
        <trkpt lat="29.1218021" lon="105.2612909"><ele>325.67</ele><time>2025-11-15T17:45:37.000Z</time></trkpt>
        <trkpt lat="29.1218749" lon="105.2612101"><ele>325.2</ele><time>2025-11-15T17:45:49.000Z</time></trkpt>
        <trkpt lat="29.1219381" lon="105.2611289"><ele>325.18</ele><time>2025-11-15T17:46:05.000Z</time></trkpt>
        <trkpt lat="29.121978" lon="105.2610362"><ele>326.18</ele><time>2025-11-15T17:46:17.000Z</time></trkpt>
        <trkpt lat="29.122001" lon="105.2609322"><ele>326.9</ele><time>2025-11-15T17:46:29.000Z</time></trkpt>
        <trkpt lat="29.1220239" lon="105.2608184"><ele>327.22</ele><time>2025-11-15T17:46:41.000Z</time></trkpt>
        <trkpt lat="29.1220481" lon="105.260712"><ele>327.62</ele><time>2025-11-15T17:46:53.000Z</time></trkpt>
        <trkpt lat="29.1220831" lon="105.2606103"><ele>328.23</ele><time>2025-11-15T17:47:07.000Z</time></trkpt>
        <trkpt lat="29.1221165" lon="105.2605078"><ele>328.69</ele><time>2025-11-15T17:47:19.000Z</time></trkpt>
        <trkpt lat="29.1221451" lon="105.2604055"><ele>328.12</ele><time>2025-11-15T17:47:31.000Z</time></trkpt>
        <trkpt lat="29.1221714" lon="105.260296"><ele>327.65</ele><time>2025-11-15T17:47:45.000Z</time></trkpt>
        <trkpt lat="29.1222036" lon="105.2601877"><ele>330.08</ele><time>2025-11-15T17:47:59.000Z</time></trkpt>
        <trkpt lat="29.1222479" lon="105.2600897"><ele>331.51</ele><time>2025-11-15T17:48:11.000Z</time></trkpt>
        <trkpt lat="29.1223182" lon="105.2600236"><ele>332.41</ele><time>2025-11-15T17:48:23.000Z</time></trkpt>
        <trkpt lat="29.1224053" lon="105.2599729"><ele>332.48</ele><time>2025-11-15T17:48:37.000Z</time></trkpt>
        <trkpt lat="29.1225016" lon="105.2599324"><ele>332.97</ele><time>2025-11-15T17:48:51.000Z</time></trkpt>
        <trkpt lat="29.1225874" lon="105.2598768"><ele>332.09</ele><time>2025-11-15T17:49:05.000Z</time></trkpt>
        <trkpt lat="29.1227017" lon="105.2598234"><ele>331.53</ele><time>2025-11-15T17:49:14.000Z</time></trkpt>
        <trkpt lat="29.1227748" lon="105.2597488"><ele>332.08</ele><time>2025-11-15T17:49:34.000Z</time></trkpt>
        <trkpt lat="29.122819" lon="105.2596496"><ele>334.78</ele><time>2025-11-15T17:49:48.000Z</time></trkpt>
        <trkpt lat="29.12283" lon="105.259539"><ele>337.03</ele><time>2025-11-15T17:50:02.000Z</time></trkpt>
        <trkpt lat="29.1228537" lon="105.2594363"><ele>338.41</ele><time>2025-11-15T17:50:16.000Z</time></trkpt>
        <trkpt lat="29.1228484" lon="105.2593311"><ele>340.4</ele><time>2025-11-15T17:50:30.000Z</time></trkpt>
        <trkpt lat="29.1228154" lon="105.2592324"><ele>341.37</ele><time>2025-11-15T17:50:42.000Z</time></trkpt>
        <trkpt lat="29.1227549" lon="105.2591474"><ele>340.95</ele><time>2025-11-15T17:50:56.000Z</time></trkpt>
        <trkpt lat="29.122665" lon="105.2591076"><ele>342.8</ele><time>2025-11-15T17:51:10.000Z</time></trkpt>
        <trkpt lat="29.1225601" lon="105.2591001"><ele>343.65</ele><time>2025-11-15T17:51:22.000Z</time></trkpt>
        <trkpt lat="29.1224531" lon="105.2590847"><ele>343.7</ele><time>2025-11-15T17:51:36.000Z</time></trkpt>
        <trkpt lat="29.1223517" lon="105.2590588"><ele>345.78</ele><time>2025-11-15T17:51:50.000Z</time></trkpt>
        <trkpt lat="29.1222597" lon="105.2590109"><ele>348.13</ele><time>2025-11-15T17:52:06.000Z</time></trkpt>
        <trkpt lat="29.1222101" lon="105.2589191"><ele>350.06</ele><time>2025-11-15T17:52:26.000Z</time></trkpt>
        <trkpt lat="29.1222094" lon="105.2588032"><ele>352.37</ele><time>2025-11-15T17:52:40.000Z</time></trkpt>
        <trkpt lat="29.1222318" lon="105.2587595"><ele>353.42</ele><time>2025-11-15T17:52:44.000Z</time></trkpt>
        <trkpt lat="29.1222704" lon="105.2586721"><ele>353.52</ele><time>2025-11-15T17:52:56.000Z</time></trkpt>
        <trkpt lat="29.1223247" lon="105.2585668"><ele>353.6</ele><time>2025-11-15T17:53:08.000Z</time></trkpt>
        <trkpt lat="29.1223954" lon="105.2584816"><ele>354.23</ele><time>2025-11-15T17:53:20.000Z</time></trkpt>
        <trkpt lat="29.1224686" lon="105.2583965"><ele>354.52</ele><time>2025-11-15T17:53:36.000Z</time></trkpt>
        <trkpt lat="29.1225413" lon="105.2583231"><ele>354.35</ele><time>2025-11-15T17:53:50.000Z</time></trkpt>
        <trkpt lat="29.1226086" lon="105.2582433"><ele>355.24</ele><time>2025-11-15T17:54:02.000Z</time></trkpt>
        <trkpt lat="29.1226715" lon="105.2581521"><ele>357.92</ele><time>2025-11-15T17:54:14.000Z</time></trkpt>
        <trkpt lat="29.1227215" lon="105.2580576"><ele>359.97</ele><time>2025-11-15T17:54:26.000Z</time></trkpt>
        <trkpt lat="29.1227678" lon="105.2579617"><ele>361.53</ele><time>2025-11-15T17:54:38.000Z</time></trkpt>
        <trkpt lat="29.1228321" lon="105.257874"><ele>361.3</ele><time>2025-11-15T17:54:50.000Z</time></trkpt>
        <trkpt lat="29.1228486" lon="105.2577678"><ele>362.33</ele><time>2025-11-15T17:55:04.000Z</time></trkpt>
        <trkpt lat="29.1229068" lon="105.257693"><ele>362.65</ele><time>2025-11-15T17:55:16.000Z</time></trkpt>
        <trkpt lat="29.1229942" lon="105.2576371"><ele>362.63</ele><time>2025-11-15T17:55:28.000Z</time></trkpt>
        <trkpt lat="29.1230759" lon="105.2575724"><ele>363.39</ele><time>2025-11-15T17:55:40.000Z</time></trkpt>
        <trkpt lat="29.1231466" lon="105.2574828"><ele>363.72</ele><time>2025-11-15T17:55:52.000Z</time></trkpt>
        <trkpt lat="29.1231881" lon="105.2573794"><ele>364.4</ele><time>2025-11-15T17:56:04.000Z</time></trkpt>
        <trkpt lat="29.1232061" lon="105.2572729"><ele>363.73</ele><time>2025-11-15T17:56:14.000Z</time></trkpt>
        <trkpt lat="29.1232423" lon="105.2571671"><ele>363.39</ele><time>2025-11-15T17:56:26.000Z</time></trkpt>
        <trkpt lat="29.1232796" lon="105.2570649"><ele>363.46</ele><time>2025-11-15T17:56:38.000Z</time></trkpt>
        <trkpt lat="29.123312" lon="105.256954"><ele>364.45</ele><time>2025-11-15T17:56:52.000Z</time></trkpt>
        <trkpt lat="29.1233533" lon="105.2568529"><ele>365.94</ele><time>2025-11-15T17:57:04.000Z</time></trkpt>
        <trkpt lat="29.1234125" lon="105.2567669"><ele>367.64</ele><time>2025-11-15T17:57:18.000Z</time></trkpt>
        <trkpt lat="29.1234343" lon="105.2566668"><ele>370.15</ele><time>2025-11-15T17:57:32.000Z</time></trkpt>
        <trkpt lat="29.1234593" lon="105.2565609"><ele>371.93</ele><time>2025-11-15T17:57:46.000Z</time></trkpt>
        <trkpt lat="29.1234782" lon="105.2564502"><ele>373.06</ele><time>2025-11-15T17:58:00.000Z</time></trkpt>
        <trkpt lat="29.1234855" lon="105.2563421"><ele>373.74</ele><time>2025-11-15T17:58:14.000Z</time></trkpt>
        <trkpt lat="29.1234937" lon="105.2562263"><ele>374.31</ele><time>2025-11-15T17:58:28.000Z</time></trkpt>
        <trkpt lat="29.1235047" lon="105.2561086"><ele>375.07</ele><time>2025-11-15T17:58:42.000Z</time></trkpt>
        <trkpt lat="29.1235118" lon="105.2559952"><ele>375.58</ele><time>2025-11-15T17:58:56.000Z</time></trkpt>
        <trkpt lat="29.1235266" lon="105.2558895"><ele>375.35</ele><time>2025-11-15T17:59:08.000Z</time></trkpt>
        <trkpt lat="29.1235287" lon="105.2557832"><ele>376.19</ele><time>2025-11-15T17:59:20.000Z</time></trkpt>
        <trkpt lat="29.1234988" lon="105.2556849"><ele>377.16</ele><time>2025-11-15T17:59:32.000Z</time></trkpt>
        <trkpt lat="29.1234623" lon="105.2555874"><ele>378.29</ele><time>2025-11-15T17:59:44.000Z</time></trkpt>
        <trkpt lat="29.1234108" lon="105.2555007"><ele>378.92</ele><time>2025-11-15T17:59:56.000Z</time></trkpt>
        <trkpt lat="29.1233541" lon="105.2554058"><ele>380.77</ele><time>2025-11-15T18:00:10.000Z</time></trkpt>
        <trkpt lat="29.1232933" lon="105.2553098"><ele>382.77</ele><time>2025-11-15T18:00:24.000Z</time></trkpt>
        <trkpt lat="29.12323" lon="105.2552257"><ele>384.72</ele><time>2025-11-15T18:00:38.000Z</time></trkpt>
        <trkpt lat="29.1231623" lon="105.2551489"><ele>386.28</ele><time>2025-11-15T18:00:52.000Z</time></trkpt>
        <trkpt lat="29.123095" lon="105.255077"><ele>387.26</ele><time>2025-11-15T18:01:06.000Z</time></trkpt>
        <trkpt lat="29.1230339" lon="105.25499"><ele>389</ele><time>2025-11-15T18:01:18.000Z</time></trkpt>
        <trkpt lat="29.1229713" lon="105.2549007"><ele>390.36</ele><time>2025-11-15T18:01:32.000Z</time></trkpt>
        <trkpt lat="29.1229101" lon="105.2548187"><ele>390.66</ele><time>2025-11-15T18:01:46.000Z</time></trkpt>
        <trkpt lat="29.1228605" lon="105.2547253"><ele>391.18</ele><time>2025-11-15T18:02:00.000Z</time></trkpt>
        <trkpt lat="29.1228373" lon="105.2546244"><ele>391.41</ele><time>2025-11-15T18:02:12.000Z</time></trkpt>
        <trkpt lat="29.1228146" lon="105.2545143"><ele>390.76</ele><time>2025-11-15T18:02:26.000Z</time></trkpt>
        <trkpt lat="29.1227786" lon="105.2544062"><ele>389.8</ele><time>2025-11-15T18:02:40.000Z</time></trkpt>
        <trkpt lat="29.1227421" lon="105.2543075"><ele>389.58</ele><time>2025-11-15T18:02:52.000Z</time></trkpt>
        <trkpt lat="29.1227009" lon="105.2542038"><ele>390.63</ele><time>2025-11-15T18:03:06.000Z</time></trkpt>
        <trkpt lat="29.1226827" lon="105.2540978"><ele>392.06</ele><time>2025-11-15T18:03:20.000Z</time></trkpt>
        <trkpt lat="29.1226571" lon="105.2539886"><ele>393.24</ele><time>2025-11-15T18:03:36.000Z</time></trkpt>
        <trkpt lat="29.1226271" lon="105.2538863"><ele>395.33</ele><time>2025-11-15T18:03:48.000Z</time></trkpt>
        <trkpt lat="29.1225985" lon="105.2537839"><ele>396.61</ele><time>2025-11-15T18:04:00.000Z</time></trkpt>
        <trkpt lat="29.1225562" lon="105.2536922"><ele>397.51</ele><time>2025-11-15T18:04:12.000Z</time></trkpt>
        <trkpt lat="29.1225063" lon="105.2535949"><ele>398.25</ele><time>2025-11-15T18:04:26.000Z</time></trkpt>
        <trkpt lat="29.1224577" lon="105.2535013"><ele>398.86</ele><time>2025-11-15T18:04:40.000Z</time></trkpt>
        <trkpt lat="29.1224069" lon="105.253409"><ele>400.48</ele><time>2025-11-15T18:04:54.000Z</time></trkpt>
        <trkpt lat="29.1223505" lon="105.2533229"><ele>401.25</ele><time>2025-11-15T18:05:10.000Z</time></trkpt>
        <trkpt lat="29.1222853" lon="105.2532432"><ele>401.47</ele><time>2025-11-15T18:05:24.000Z</time></trkpt>
        <trkpt lat="29.1222176" lon="105.2531589"><ele>402.18</ele><time>2025-11-15T18:05:38.000Z</time></trkpt>
        <trkpt lat="29.1221484" lon="105.2530766"><ele>402.55</ele><time>2025-11-15T18:05:52.000Z</time></trkpt>
        <trkpt lat="29.1220759" lon="105.2530029"><ele>402.54</ele><time>2025-11-15T18:06:06.000Z</time></trkpt>
        <trkpt lat="29.1220022" lon="105.2529308"><ele>401.76</ele><time>2025-11-15T18:06:22.000Z</time></trkpt>
        <trkpt lat="29.1219206" lon="105.2528735"><ele>402.54</ele><time>2025-11-15T18:06:32.000Z</time></trkpt>
        <trkpt lat="29.1218358" lon="105.2528207"><ele>402.73</ele><time>2025-11-15T18:06:46.000Z</time></trkpt>
        <trkpt lat="29.1217489" lon="105.2527726"><ele>403.1</ele><time>2025-11-15T18:07:00.000Z</time></trkpt>
        <trkpt lat="29.1216796" lon="105.2527019"><ele>403.61</ele><time>2025-11-15T18:07:32.000Z</time></trkpt>
        <trkpt lat="29.1216245" lon="105.2526118"><ele>403.07</ele><time>2025-11-15T18:07:52.000Z</time></trkpt>
        <trkpt lat="29.1215809" lon="105.2525183"><ele>402.8</ele><time>2025-11-15T18:08:06.000Z</time></trkpt>
        <trkpt lat="29.1215534" lon="105.2524085"><ele>402.54</ele><time>2025-11-15T18:08:22.000Z</time></trkpt>
        <trkpt lat="29.1215241" lon="105.252302"><ele>400.96</ele><time>2025-11-15T18:08:36.000Z</time></trkpt>
        <trkpt lat="29.1215012" lon="105.2521987"><ele>399.67</ele><time>2025-11-15T18:08:48.000Z</time></trkpt>
        <trkpt lat="29.1215275" lon="105.2520988"><ele>399.43</ele><time>2025-11-15T18:09:02.000Z</time></trkpt>
        <trkpt lat="29.1215311" lon="105.25199"><ele>398.71</ele><time>2025-11-15T18:09:16.000Z</time></trkpt>
        <trkpt lat="29.1215218" lon="105.2518842"><ele>398.71</ele><time>2025-11-15T18:09:30.000Z</time></trkpt>
        <trkpt lat="29.1215295" lon="105.2517726"><ele>398.39</ele><time>2025-11-15T18:09:44.000Z</time></trkpt>
        <trkpt lat="29.1215469" lon="105.2516666"><ele>397.35</ele><time>2025-11-15T18:09:58.000Z</time></trkpt>
        <trkpt lat="29.1215693" lon="105.2515642"><ele>396.48</ele><time>2025-11-15T18:10:12.000Z</time></trkpt>
        <trkpt lat="29.1215875" lon="105.2514566"><ele>395.58</ele><time>2025-11-15T18:10:24.000Z</time></trkpt>
        <trkpt lat="29.1216124" lon="105.251348"><ele>395.48</ele><time>2025-11-15T18:10:36.000Z</time></trkpt>
        <trkpt lat="29.1216417" lon="105.2512455"><ele>395.82</ele><time>2025-11-15T18:10:48.000Z</time></trkpt>
        <trkpt lat="29.1216698" lon="105.2511365"><ele>396.37</ele><time>2025-11-15T18:11:02.000Z</time></trkpt>
        <trkpt lat="29.1216929" lon="105.2510255"><ele>397.35</ele><time>2025-11-15T18:11:16.000Z</time></trkpt>
        <trkpt lat="29.1217187" lon="105.2509144"><ele>397.86</ele><time>2025-11-15T18:11:32.000Z</time></trkpt>
        <trkpt lat="29.121727" lon="105.250803"><ele>397.09</ele><time>2025-11-15T18:11:46.000Z</time></trkpt>
        <trkpt lat="29.1217176" lon="105.2506909"><ele>396.17</ele><time>2025-11-15T18:12:00.000Z</time></trkpt>
        <trkpt lat="29.1217242" lon="105.2505813"><ele>395.85</ele><time>2025-11-15T18:12:14.000Z</time></trkpt>
        <trkpt lat="29.1217351" lon="105.2504777"><ele>395.45</ele><time>2025-11-15T18:12:26.000Z</time></trkpt>
        <trkpt lat="29.1217618" lon="105.2503773"><ele>395.71</ele><time>2025-11-15T18:12:40.000Z</time></trkpt>
        <trkpt lat="29.1217936" lon="105.2502777"><ele>395.65</ele><time>2025-11-15T18:12:54.000Z</time></trkpt>
        <trkpt lat="29.1218307" lon="105.2501721"><ele>395.25</ele><time>2025-11-15T18:13:08.000Z</time></trkpt>
        <trkpt lat="29.1218595" lon="105.2500592"><ele>394.06</ele><time>2025-11-15T18:13:24.000Z</time></trkpt>
        <trkpt lat="29.1219001" lon="105.2499622"><ele>393.3</ele><time>2025-11-15T18:13:36.000Z</time></trkpt>
        <trkpt lat="29.1219589" lon="105.2498825"><ele>393.12</ele><time>2025-11-15T18:13:50.000Z</time></trkpt>
        <trkpt lat="29.1220279" lon="105.249815"><ele>393.04</ele><time>2025-11-15T18:14:04.000Z</time></trkpt>
        <trkpt lat="29.122104" lon="105.2497494"><ele>394.04</ele><time>2025-11-15T18:14:18.000Z</time></trkpt>
        <trkpt lat="29.1221905" lon="105.2497006"><ele>395.15</ele><time>2025-11-15T18:14:30.000Z</time></trkpt>
        <trkpt lat="29.1222723" lon="105.2496447"><ele>396.01</ele><time>2025-11-15T18:14:44.000Z</time></trkpt>
        <trkpt lat="29.1223525" lon="105.249594"><ele>396.12</ele><time>2025-11-15T18:14:56.000Z</time></trkpt>
        <trkpt lat="29.1224256" lon="105.2495154"><ele>396.41</ele><time>2025-11-15T18:15:10.000Z</time></trkpt>
        <trkpt lat="29.1224764" lon="105.2494259"><ele>396.78</ele><time>2025-11-15T18:15:22.000Z</time></trkpt>
        <trkpt lat="29.1225141" lon="105.2493191"><ele>397.36</ele><time>2025-11-15T18:15:36.000Z</time></trkpt>
        <trkpt lat="29.1225555" lon="105.2492169"><ele>397.82</ele><time>2025-11-15T18:15:50.000Z</time></trkpt>
        <trkpt lat="29.1225944" lon="105.2491185"><ele>399.98</ele><time>2025-11-15T18:16:08.000Z</time></trkpt>
        <trkpt lat="29.1226139" lon="105.2490069"><ele>402.18</ele><time>2025-11-15T18:16:40.000Z</time></trkpt>
        <trkpt lat="29.1227261" lon="105.2490267"><ele>404.94</ele><time>2025-11-15T18:17:49.000Z</time></trkpt>
        <trkpt lat="29.1226541" lon="105.2489492"><ele>404.08</ele><time>2025-11-15T18:17:56.000Z</time></trkpt>
        <trkpt lat="29.1226108" lon="105.248846"><ele>407.21</ele><time>2025-11-15T18:18:16.000Z</time></trkpt>
        <trkpt lat="29.1226245" lon="105.2487227"><ele>410.06</ele><time>2025-11-15T18:18:31.000Z</time></trkpt>
        <trkpt lat="29.1226206" lon="105.2486493"><ele>410.97</ele><time>2025-11-15T18:18:36.000Z</time></trkpt>
        <trkpt lat="29.122662" lon="105.248571"><ele>412.26</ele><time>2025-11-15T18:18:48.000Z</time></trkpt>
        <trkpt lat="29.1226882" lon="105.2484675"><ele>412.12</ele><time>2025-11-15T18:19:02.000Z</time></trkpt>
        <trkpt lat="29.1227067" lon="105.2483589"><ele>413.69</ele><time>2025-11-15T18:19:20.000Z</time></trkpt>
        <trkpt lat="29.1227212" lon="105.2482479"><ele>414.37</ele><time>2025-11-15T18:19:34.000Z</time></trkpt>
        <trkpt lat="29.1227257" lon="105.2481343"><ele>415.7</ele><time>2025-11-15T18:19:46.000Z</time></trkpt>
        <trkpt lat="29.1227142" lon="105.2480217"><ele>416.03</ele><time>2025-11-15T18:19:58.000Z</time></trkpt>
        <trkpt lat="29.1227026" lon="105.2479128"><ele>416.14</ele><time>2025-11-15T18:20:10.000Z</time></trkpt>
        <trkpt lat="29.1226961" lon="105.2478049"><ele>416.63</ele><time>2025-11-15T18:20:26.000Z</time></trkpt>
        <trkpt lat="29.1226742" lon="105.2477025"><ele>417.4</ele><time>2025-11-15T18:20:36.000Z</time></trkpt>
        <trkpt lat="29.1226272" lon="105.247605"><ele>418.31</ele><time>2025-11-15T18:20:48.000Z</time></trkpt>
        <trkpt lat="29.122563" lon="105.2475113"><ele>420.01</ele><time>2025-11-15T18:21:02.000Z</time></trkpt>
        <trkpt lat="29.1224923" lon="105.2474265"><ele>420.69</ele><time>2025-11-15T18:21:16.000Z</time></trkpt>
        <trkpt lat="29.1224403" lon="105.2473269"><ele>420.64</ele><time>2025-11-15T18:21:30.000Z</time></trkpt>
        <trkpt lat="29.1224335" lon="105.2472207"><ele>420.03</ele><time>2025-11-15T18:21:40.000Z</time></trkpt>
        <trkpt lat="29.1224258" lon="105.2471674"><ele>419.5</ele><time>2025-11-15T18:21:52.000Z</time></trkpt>
        <trkpt lat="29.1224246" lon="105.2470735"><ele>420.28</ele><time>2025-11-15T18:22:08.000Z</time></trkpt>
        <trkpt lat="29.1223996" lon="105.2469658"><ele>422.04</ele><time>2025-11-15T18:22:22.000Z</time></trkpt>
        <trkpt lat="29.1223786" lon="105.2468429"><ele>423.6</ele><time>2025-11-15T18:22:36.000Z</time></trkpt>
        <trkpt lat="29.1223102" lon="105.2467598"><ele>424.14</ele><time>2025-11-15T18:22:49.000Z</time></trkpt>
        <trkpt lat="29.1222509" lon="105.246671"><ele>424.05</ele><time>2025-11-15T18:23:14.000Z</time></trkpt>
        <trkpt lat="29.1221887" lon="105.2465859"><ele>424.69</ele><time>2025-11-15T18:23:26.000Z</time></trkpt>
        <trkpt lat="29.1221154" lon="105.2465128"><ele>425.75</ele><time>2025-11-15T18:23:44.000Z</time></trkpt>
        <trkpt lat="29.1220916" lon="105.2464108"><ele>426.6</ele><time>2025-11-15T18:24:10.000Z</time></trkpt>
        <trkpt lat="29.1221284" lon="105.246412"><ele>426.37</ele><time>2025-11-15T18:24:20.000Z</time></trkpt>
        <trkpt lat="29.1222018" lon="105.2464808"><ele>426.71</ele><time>2025-11-15T18:24:36.000Z</time></trkpt>
        <trkpt lat="29.122284" lon="105.2465713"><ele>427.14</ele><time>2025-11-15T18:24:58.000Z</time></trkpt>
        <trkpt lat="29.1223561" lon="105.2466643"><ele>428.19</ele><time>2025-11-15T18:25:48.000Z</time></trkpt>
        <trkpt lat="29.1224088" lon="105.2466189"><ele>429.88</ele><time>2025-11-15T18:26:16.000Z</time></trkpt>
        <trkpt lat="29.122398" lon="105.2466674"><ele>432.67</ele><time>2025-11-15T18:26:46.000Z</time></trkpt>
        <trkpt lat="29.1224056" lon="105.2467248"><ele>434.03</ele><time>2025-11-15T18:26:54.000Z</time></trkpt>
        <trkpt lat="29.1224712" lon="105.2467239"><ele>434.64</ele><time>2025-11-15T18:27:20.000Z</time></trkpt>
        <trkpt lat="29.1225103" lon="105.2468211"><ele>435.63</ele><time>2025-11-15T18:29:02.000Z</time></trkpt>
        <trkpt lat="29.1225625" lon="105.2469057"><ele>434.57</ele><time>2025-11-15T18:29:16.000Z</time></trkpt>
        <trkpt lat="29.1226216" lon="105.2470195"><ele>434.11</ele><time>2025-11-15T18:29:32.000Z</time></trkpt>
        <trkpt lat="29.1226922" lon="105.2470974"><ele>434.07</ele><time>2025-11-15T18:29:55.000Z</time></trkpt>
        <trkpt lat="29.1227414" lon="105.2471825"><ele>436.06</ele><time>2025-11-15T18:30:11.000Z</time></trkpt>
        <trkpt lat="29.122826" lon="105.2472031"><ele>439.65</ele><time>2025-11-15T18:30:35.000Z</time></trkpt>
        <trkpt lat="29.1228926" lon="105.2472668"><ele>442.29</ele><time>2025-11-15T18:31:15.000Z</time></trkpt>
        <trkpt lat="29.1229615" lon="105.2473349"><ele>443.6</ele><time>2025-11-15T18:31:31.000Z</time></trkpt>
        <trkpt lat="29.1230457" lon="105.2473662"><ele>446.46</ele><time>2025-11-15T18:32:17.000Z</time></trkpt>
        <trkpt lat="29.123099" lon="105.2472939"><ele>449.91</ele><time>2025-11-15T18:32:45.000Z</time></trkpt>
        <trkpt lat="29.1231792" lon="105.2472603"><ele>454.12</ele><time>2025-11-15T18:33:17.000Z</time></trkpt>
        <trkpt lat="29.1232748" lon="105.2472479"><ele>456.09</ele><time>2025-11-15T18:33:45.000Z</time></trkpt>
        <trkpt lat="29.123346" lon="105.2473049"><ele>460.32</ele><time>2025-11-15T18:33:52.000Z</time></trkpt>
        <trkpt lat="29.123408" lon="105.2473993"><ele>464.15</ele><time>2025-11-15T18:35:47.000Z</time></trkpt>
        <trkpt lat="29.1234856" lon="105.2474744"><ele>466.67</ele><time>2025-11-15T18:36:04.000Z</time></trkpt>
        <trkpt lat="29.1235734" lon="105.2474769"><ele>469.44</ele><time>2025-11-15T18:36:18.000Z</time></trkpt>
        <trkpt lat="29.1236642" lon="105.2474905"><ele>470.23</ele><time>2025-11-15T18:36:32.000Z</time></trkpt>
        <trkpt lat="29.1237568" lon="105.2475095"><ele>470.39</ele><time>2025-11-15T18:36:44.000Z</time></trkpt>
        <trkpt lat="29.1238493" lon="105.2474848"><ele>470.04</ele><time>2025-11-15T18:36:58.000Z</time></trkpt>
        <trkpt lat="29.1239423" lon="105.2474592"><ele>469.8</ele><time>2025-11-15T18:37:12.000Z</time></trkpt>
        <trkpt lat="29.124032" lon="105.2474932"><ele>469.87</ele><time>2025-11-15T18:37:30.000Z</time></trkpt>
        <trkpt lat="29.1240767" lon="105.2475846"><ele>469.66</ele><time>2025-11-15T18:37:44.000Z</time></trkpt>
        <trkpt lat="29.1240368" lon="105.2476814"><ele>468.47</ele><time>2025-11-15T18:37:56.000Z</time></trkpt>
        <trkpt lat="29.1239472" lon="105.247754"><ele>468.47</ele><time>2025-11-15T18:38:10.000Z</time></trkpt>
        <trkpt lat="29.1239768" lon="105.2476719"><ele>469.4</ele><time>2025-11-15T18:39:29.000Z</time></trkpt>
        <trkpt lat="29.1240502" lon="105.2476056"><ele>470.47</ele><time>2025-11-15T18:39:43.000Z</time></trkpt>
        <trkpt lat="29.1240368" lon="105.2475036"><ele>471.74</ele><time>2025-11-15T18:39:59.000Z</time></trkpt>
        <trkpt lat="29.1240421" lon="105.2473993"><ele>471.65</ele><time>2025-11-15T18:40:46.000Z</time></trkpt>
        <trkpt lat="29.1240936" lon="105.2473099"><ele>472.07</ele><time>2025-11-15T18:41:04.000Z</time></trkpt>
        <trkpt lat="29.1241702" lon="105.2472396"><ele>471.31</ele><time>2025-11-15T18:41:28.000Z</time></trkpt>
        <trkpt lat="29.1242646" lon="105.2471958"><ele>470.68</ele><time>2025-11-15T18:41:54.000Z</time></trkpt>
        <trkpt lat="29.1243512" lon="105.2472319"><ele>468.6</ele><time>2025-11-15T18:42:14.000Z</time></trkpt>
        <trkpt lat="29.1244119" lon="105.2473201"><ele>466.97</ele><time>2025-11-15T18:42:54.000Z</time></trkpt>
        <trkpt lat="29.1244329" lon="105.2474349"><ele>464.17</ele><time>2025-11-15T18:43:26.000Z</time></trkpt>
        <trkpt lat="29.1244511" lon="105.2475507"><ele>460.83</ele><time>2025-11-15T18:44:04.000Z</time></trkpt>
        <trkpt lat="29.124471" lon="105.2476623"><ele>457.43</ele><time>2025-11-15T18:44:32.000Z</time></trkpt>
        <trkpt lat="29.1245298" lon="105.2477447"><ele>453.99</ele><time>2025-11-15T18:45:07.000Z</time></trkpt>
        <trkpt lat="29.1246256" lon="105.2478081"><ele>450.32</ele><time>2025-11-15T18:45:21.000Z</time></trkpt>
        <trkpt lat="29.1246835" lon="105.2478935"><ele>452.26</ele><time>2025-11-15T18:45:38.000Z</time></trkpt>
        <trkpt lat="29.1247183" lon="105.2480058"><ele>450.15</ele><time>2025-11-15T18:46:14.000Z</time></trkpt>
        <trkpt lat="29.1247371" lon="105.2481147"><ele>445.31</ele><time>2025-11-15T18:46:30.000Z</time></trkpt>
        <trkpt lat="29.1247701" lon="105.2482196"><ele>441.25</ele><time>2025-11-15T18:46:50.000Z</time></trkpt>
        <trkpt lat="29.1247867" lon="105.2483258"><ele>437.87</ele><time>2025-11-15T18:47:06.000Z</time></trkpt>
        <trkpt lat="29.1247775" lon="105.2484333"><ele>435.05</ele><time>2025-11-15T18:47:22.000Z</time></trkpt>
        <trkpt lat="29.1248508" lon="105.2484267"><ele>434.18</ele><time>2025-11-15T18:47:38.000Z</time></trkpt>
        <trkpt lat="29.1249088" lon="105.2483356"><ele>433.44</ele><time>2025-11-15T18:47:45.000Z</time></trkpt>
        <trkpt lat="29.1249143" lon="105.248216"><ele>433.03</ele><time>2025-11-15T18:47:57.000Z</time></trkpt>
        <trkpt lat="29.1249426" lon="105.248098"><ele>433</ele><time>2025-11-15T18:48:15.000Z</time></trkpt>
        <trkpt lat="29.1249997" lon="105.2480081"><ele>432.09</ele><time>2025-11-15T18:48:31.000Z</time></trkpt>
        <trkpt lat="29.1250704" lon="105.2479246"><ele>431.27</ele><time>2025-11-15T18:48:43.000Z</time></trkpt>
        <trkpt lat="29.1251362" lon="105.2478346"><ele>430.71</ele><time>2025-11-15T18:48:55.000Z</time></trkpt>
        <trkpt lat="29.1251875" lon="105.2477401"><ele>430.28</ele><time>2025-11-15T18:49:07.000Z</time></trkpt>
        <trkpt lat="29.1252211" lon="105.2476383"><ele>429.61</ele><time>2025-11-15T18:49:21.000Z</time></trkpt>
        <trkpt lat="29.1252498" lon="105.2475325"><ele>428.26</ele><time>2025-11-15T18:49:35.000Z</time></trkpt>
        <trkpt lat="29.1253064" lon="105.2474514"><ele>428.35</ele><time>2025-11-15T18:49:53.000Z</time></trkpt>
        <trkpt lat="29.1253969" lon="105.2474073"><ele>428.87</ele><time>2025-11-15T18:50:15.000Z</time></trkpt>
        <trkpt lat="29.1254676" lon="105.2473319"><ele>426.14</ele><time>2025-11-15T18:50:31.000Z</time></trkpt>
        <trkpt lat="29.1255616" lon="105.2473081"><ele>423.33</ele><time>2025-11-15T18:50:47.000Z</time></trkpt>
        <trkpt lat="29.1256543" lon="105.2472693"><ele>420.08</ele><time>2025-11-15T18:51:01.000Z</time></trkpt>
        <trkpt lat="29.12574" lon="105.2473039"><ele>418.18</ele><time>2025-11-15T18:51:17.000Z</time></trkpt>
        <trkpt lat="29.1258324" lon="105.2472934"><ele>414.98</ele><time>2025-11-15T18:51:33.000Z</time></trkpt>
        <trkpt lat="29.125927" lon="105.2472845"><ele>414.44</ele><time>2025-11-15T18:51:47.000Z</time></trkpt>
        <trkpt lat="29.1260324" lon="105.2472922"><ele>413.88</ele><time>2025-11-15T18:52:01.000Z</time></trkpt>
        <trkpt lat="29.1261249" lon="105.2472524"><ele>412.54</ele><time>2025-11-15T18:52:30.000Z</time></trkpt>
        <trkpt lat="29.1262133" lon="105.2472742"><ele>415.14</ele><time>2025-11-15T18:52:46.000Z</time></trkpt>
        <trkpt lat="29.1263234" lon="105.2472891"><ele>413.95</ele><time>2025-11-15T18:53:02.000Z</time></trkpt>
        <trkpt lat="29.12642" lon="105.2472679"><ele>412.63</ele><time>2025-11-15T18:53:18.000Z</time></trkpt>
        <trkpt lat="29.1265157" lon="105.2472659"><ele>411.5</ele><time>2025-11-15T18:53:34.000Z</time></trkpt>
        <trkpt lat="29.1266135" lon="105.2472856"><ele>408.68</ele><time>2025-11-15T18:53:46.000Z</time></trkpt>
        <trkpt lat="29.1267069" lon="105.2472705"><ele>407.77</ele><time>2025-11-15T18:54:02.000Z</time></trkpt>
        <trkpt lat="29.126784" lon="105.2472037"><ele>407.72</ele><time>2025-11-15T18:54:14.000Z</time></trkpt>
        <trkpt lat="29.1268089" lon="105.2470968"><ele>405.66</ele><time>2025-11-15T18:54:30.000Z</time></trkpt>
        <trkpt lat="29.1268717" lon="105.2470183"><ele>405.65</ele><time>2025-11-15T18:54:42.000Z</time></trkpt>
        <trkpt lat="29.1269606" lon="105.2469961"><ele>406.13</ele><time>2025-11-15T18:54:54.000Z</time></trkpt>
        <trkpt lat="29.1270272" lon="105.2469285"><ele>405.34</ele><time>2025-11-15T18:55:06.000Z</time></trkpt>
        <trkpt lat="29.1271013" lon="105.2468567"><ele>403.86</ele><time>2025-11-15T18:55:19.000Z</time></trkpt>
        <trkpt lat="29.1271805" lon="105.2467929"><ele>403.06</ele><time>2025-11-15T18:55:31.000Z</time></trkpt>
        <trkpt lat="29.1272635" lon="105.2467464"><ele>401.69</ele><time>2025-11-15T18:55:53.000Z</time></trkpt>
        <trkpt lat="29.1273492" lon="105.246774"><ele>400.17</ele><time>2025-11-15T18:56:49.000Z</time></trkpt>
        <trkpt lat="29.1274243" lon="105.246844"><ele>396.75</ele><time>2025-11-15T18:57:03.000Z</time></trkpt>
        <trkpt lat="29.1274864" lon="105.2469321"><ele>395.13</ele><time>2025-11-15T18:57:17.000Z</time></trkpt>
        <trkpt lat="29.1275482" lon="105.2470329"><ele>394.12</ele><time>2025-11-15T18:57:29.000Z</time></trkpt>
        <trkpt lat="29.1276196" lon="105.247123"><ele>394.64</ele><time>2025-11-15T18:57:45.000Z</time></trkpt>
        <trkpt lat="29.1277117" lon="105.2471774"><ele>396.01</ele><time>2025-11-15T18:57:59.000Z</time></trkpt>
        <trkpt lat="29.127809" lon="105.2472185"><ele>398.16</ele><time>2025-11-15T18:58:13.000Z</time></trkpt>
        <trkpt lat="29.1279068" lon="105.2472468"><ele>399.31</ele><time>2025-11-15T18:58:25.000Z</time></trkpt>
        <trkpt lat="29.1280047" lon="105.2472768"><ele>401.25</ele><time>2025-11-15T18:58:39.000Z</time></trkpt>
        <trkpt lat="29.1281036" lon="105.247308"><ele>402.09</ele><time>2025-11-15T18:59:36.000Z</time></trkpt>
        <trkpt lat="29.1281973" lon="105.2473178"><ele>402.19</ele><time>2025-11-15T18:59:46.000Z</time></trkpt>
        <trkpt lat="29.1282857" lon="105.2473394"><ele>402.54</ele><time>2025-11-15T18:59:58.000Z</time></trkpt>
        <trkpt lat="29.1283765" lon="105.2473377"><ele>403.93</ele><time>2025-11-15T19:00:10.000Z</time></trkpt>
        <trkpt lat="29.1284691" lon="105.2472981"><ele>405.1</ele><time>2025-11-15T19:00:24.000Z</time></trkpt>
        <trkpt lat="29.1285646" lon="105.2472752"><ele>404.36</ele><time>2025-11-15T19:00:38.000Z</time></trkpt>
        <trkpt lat="29.1286656" lon="105.2472724"><ele>404.83</ele><time>2025-11-15T19:00:52.000Z</time></trkpt>
        <trkpt lat="29.128766" lon="105.2472835"><ele>403.32</ele><time>2025-11-15T19:01:06.000Z</time></trkpt>
        <trkpt lat="29.1288427" lon="105.2473548"><ele>401.59</ele><time>2025-11-15T19:01:22.000Z</time></trkpt>
        <trkpt lat="29.1289166" lon="105.2474237"><ele>400.07</ele><time>2025-11-15T19:01:40.000Z</time></trkpt>
        <trkpt lat="29.1290005" lon="105.247492"><ele>399.27</ele><time>2025-11-15T19:01:58.000Z</time></trkpt>
        <trkpt lat="29.1290936" lon="105.2475507"><ele>398.74</ele><time>2025-11-15T19:02:14.000Z</time></trkpt>
        <trkpt lat="29.1291875" lon="105.2475846"><ele>397.98</ele><time>2025-11-15T19:02:30.000Z</time></trkpt>
        <trkpt lat="29.1292797" lon="105.2475961"><ele>396.13</ele><time>2025-11-15T19:02:44.000Z</time></trkpt>
        <trkpt lat="29.129375" lon="105.2475871"><ele>395.6</ele><time>2025-11-15T19:02:58.000Z</time></trkpt>
        <trkpt lat="29.1294791" lon="105.247572"><ele>394.76</ele><time>2025-11-15T19:03:16.000Z</time></trkpt>
        <trkpt lat="29.129573" lon="105.2475293"><ele>392.67</ele><time>2025-11-15T19:03:32.000Z</time></trkpt>
        <trkpt lat="29.1296436" lon="105.2474561"><ele>391.25</ele><time>2025-11-15T19:03:48.000Z</time></trkpt>
        <trkpt lat="29.1297125" lon="105.247375"><ele>389.7</ele><time>2025-11-15T19:04:06.000Z</time></trkpt>
        <trkpt lat="29.1297782" lon="105.247287"><ele>389.6</ele><time>2025-11-15T19:04:22.000Z</time></trkpt>
        <trkpt lat="29.1298515" lon="105.2472144"><ele>390.02</ele><time>2025-11-15T19:04:38.000Z</time></trkpt>
        <trkpt lat="29.1299005" lon="105.2471255"><ele>389.51</ele><time>2025-11-15T19:04:54.000Z</time></trkpt>
        <trkpt lat="29.1299374" lon="105.2470291"><ele>388.21</ele><time>2025-11-15T19:05:08.000Z</time></trkpt>
        <trkpt lat="29.129985" lon="105.2469344"><ele>387.87</ele><time>2025-11-15T19:05:24.000Z</time></trkpt>
        <trkpt lat="29.1300088" lon="105.2468296"><ele>386.62</ele><time>2025-11-15T19:05:40.000Z</time></trkpt>
        <trkpt lat="29.1300634" lon="105.2467446"><ele>386.1</ele><time>2025-11-15T19:05:56.000Z</time></trkpt>
        <trkpt lat="29.1301498" lon="105.24675"><ele>386.5</ele><time>2025-11-15T19:06:18.000Z</time></trkpt>
        <trkpt lat="29.1301908" lon="105.2468393"><ele>385.08</ele><time>2025-11-15T19:06:34.000Z</time></trkpt>
        <trkpt lat="29.1301671" lon="105.2469499"><ele>382.72</ele><time>2025-11-15T19:07:00.000Z</time></trkpt>
        <trkpt lat="29.1301216" lon="105.247066"><ele>380.92</ele><time>2025-11-15T19:07:16.000Z</time></trkpt>
        <trkpt lat="29.130081" lon="105.2471845"><ele>379.21</ele><time>2025-11-15T19:07:40.000Z</time></trkpt>
        <trkpt lat="29.1300765" lon="105.2473059"><ele>375.87</ele><time>2025-11-15T19:07:52.000Z</time></trkpt>
        <trkpt lat="29.1300327" lon="105.2473968"><ele>373.86</ele><time>2025-11-15T19:08:06.000Z</time></trkpt>
        <trkpt lat="29.1299913" lon="105.2474953"><ele>373.32</ele><time>2025-11-15T19:08:22.000Z</time></trkpt>
        <trkpt lat="29.129986" lon="105.2475999"><ele>374.08</ele><time>2025-11-15T19:08:36.000Z</time></trkpt>
        <trkpt lat="29.130026" lon="105.2476996"><ele>373.41</ele><time>2025-11-15T19:08:58.000Z</time></trkpt>
        <trkpt lat="29.1300726" lon="105.2477983"><ele>371.7</ele><time>2025-11-15T19:09:12.000Z</time></trkpt>
        <trkpt lat="29.130111" lon="105.2479016"><ele>369.95</ele><time>2025-11-15T19:09:36.000Z</time></trkpt>
        <trkpt lat="29.130121" lon="105.2480172"><ele>369.9</ele><time>2025-11-15T19:10:05.000Z</time></trkpt>
        <trkpt lat="29.1301529" lon="105.2479742"><ele>368.05</ele><time>2025-11-15T19:10:15.000Z</time></trkpt>
        <trkpt lat="29.1301782" lon="105.2480305"><ele>367.57</ele><time>2025-11-15T19:12:47.000Z</time></trkpt>
        <trkpt lat="29.1302343" lon="105.248112"><ele>368.05</ele><time>2025-11-15T19:13:01.000Z</time></trkpt>
        <trkpt lat="29.1302826" lon="105.2482002"><ele>368.28</ele><time>2025-11-15T19:13:17.000Z</time></trkpt>
        <trkpt lat="29.1303372" lon="105.248302"><ele>367.25</ele><time>2025-11-15T19:13:31.000Z</time></trkpt>
        <trkpt lat="29.1303829" lon="105.2484027"><ele>365.98</ele><time>2025-11-15T19:13:43.000Z</time></trkpt>
        <trkpt lat="29.1304044" lon="105.2485067"><ele>365.73</ele><time>2025-11-15T19:13:55.000Z</time></trkpt>
        <trkpt lat="29.1304098" lon="105.2486215"><ele>366.12</ele><time>2025-11-15T19:14:11.000Z</time></trkpt>
        <trkpt lat="29.1304405" lon="105.2487221"><ele>366.62</ele><time>2025-11-15T19:14:23.000Z</time></trkpt>
        <trkpt lat="29.130467" lon="105.2488237"><ele>367.55</ele><time>2025-11-15T19:14:53.000Z</time></trkpt>
        <trkpt lat="29.130448" lon="105.2489213"><ele>369.45</ele><time>2025-11-15T19:15:15.000Z</time></trkpt>
        <trkpt lat="29.1304084" lon="105.2490234"><ele>370.84</ele><time>2025-11-15T19:15:39.000Z</time></trkpt>
        <trkpt lat="29.1303731" lon="105.249136"><ele>372.94</ele><time>2025-11-15T19:15:51.000Z</time></trkpt>
        <trkpt lat="29.1304096" lon="105.2492218"><ele>374.97</ele><time>2025-11-15T19:16:05.000Z</time></trkpt>
        <trkpt lat="29.1304953" lon="105.2492434"><ele>376.67</ele><time>2025-11-15T19:16:19.000Z</time></trkpt>
        <trkpt lat="29.1306003" lon="105.2492647"><ele>379.11</ele><time>2025-11-15T19:16:33.000Z</time></trkpt>
        <trkpt lat="29.1306839" lon="105.2493283"><ele>379.69</ele><time>2025-11-15T19:16:45.000Z</time></trkpt>
        <trkpt lat="29.1307355" lon="105.2494248"><ele>380.7</ele><time>2025-11-15T19:17:11.000Z</time></trkpt>
        <trkpt lat="29.1307429" lon="105.2495327"><ele>381.7</ele><time>2025-11-15T19:17:23.000Z</time></trkpt>
        <trkpt lat="29.1307796" lon="105.2496346"><ele>383.13</ele><time>2025-11-15T19:17:41.000Z</time></trkpt>
        <trkpt lat="29.1308165" lon="105.2497383"><ele>384.01</ele><time>2025-11-15T19:17:57.000Z</time></trkpt>
        <trkpt lat="29.1308657" lon="105.2498336"><ele>385</ele><time>2025-11-15T19:18:11.000Z</time></trkpt>
        <trkpt lat="29.1309499" lon="105.2498974"><ele>387.2</ele><time>2025-11-15T19:18:26.000Z</time></trkpt>
        <trkpt lat="29.1310385" lon="105.24994"><ele>388.16</ele><time>2025-11-15T19:18:42.000Z</time></trkpt>
        <trkpt lat="29.1311234" lon="105.2499896"><ele>390.57</ele><time>2025-11-15T19:19:00.000Z</time></trkpt>
        <trkpt lat="29.1312191" lon="105.2500146"><ele>392.01</ele><time>2025-11-15T19:19:16.000Z</time></trkpt>
        <trkpt lat="29.1313106" lon="105.2500437"><ele>394.75</ele><time>2025-11-15T19:19:30.000Z</time></trkpt>
        <trkpt lat="29.1314107" lon="105.2500779"><ele>396.49</ele><time>2025-11-15T19:19:44.000Z</time></trkpt>
        <trkpt lat="29.1314692" lon="105.2500972"><ele>399.77</ele><time>2025-11-15T19:19:54.000Z</time></trkpt>
        <trkpt lat="29.1315519" lon="105.250119"><ele>402.18</ele><time>2025-11-15T19:20:10.000Z</time></trkpt>
        <trkpt lat="29.131646" lon="105.2501376"><ele>401.84</ele><time>2025-11-15T19:20:32.000Z</time></trkpt>
        <trkpt lat="29.1317477" lon="105.2501268"><ele>403.19</ele><time>2025-11-15T19:20:48.000Z</time></trkpt>
        <trkpt lat="29.131848" lon="105.2501306"><ele>404.65</ele><time>2025-11-15T19:21:02.000Z</time></trkpt>
        <trkpt lat="29.1319378" lon="105.2501066"><ele>405.13</ele><time>2025-11-15T19:21:20.000Z</time></trkpt>
        <trkpt lat="29.1320326" lon="105.2500795"><ele>406.76</ele><time>2025-11-15T19:21:58.000Z</time></trkpt>
        <trkpt lat="29.1321312" lon="105.2500693"><ele>409.33</ele><time>2025-11-15T19:22:14.000Z</time></trkpt>
        <trkpt lat="29.1322274" lon="105.250079"><ele>412.07</ele><time>2025-11-15T19:22:32.000Z</time></trkpt>
        <trkpt lat="29.1323149" lon="105.2501256"><ele>414.08</ele><time>2025-11-15T19:22:50.000Z</time></trkpt>
        <trkpt lat="29.1323895" lon="105.250196"><ele>415.69</ele><time>2025-11-15T19:23:04.000Z</time></trkpt>
        <trkpt lat="29.132465" lon="105.2502637"><ele>417.06</ele><time>2025-11-15T19:23:30.000Z</time></trkpt>
        <trkpt lat="29.1325295" lon="105.250351"><ele>417.13</ele><time>2025-11-15T19:23:44.000Z</time></trkpt>
        <trkpt lat="29.1325996" lon="105.2504288"><ele>417.43</ele><time>2025-11-15T19:24:19.000Z</time></trkpt>
        <trkpt lat="29.1326374" lon="105.2505233"><ele>419.78</ele><time>2025-11-15T19:24:37.000Z</time></trkpt>
        <trkpt lat="29.1325933" lon="105.250604"><ele>421.11</ele><time>2025-11-15T19:25:05.000Z</time></trkpt>
        <trkpt lat="29.1325267" lon="105.2506904"><ele>424.09</ele><time>2025-11-15T19:25:29.000Z</time></trkpt>
        <trkpt lat="29.1324429" lon="105.2507605"><ele>425.03</ele><time>2025-11-15T19:25:41.000Z</time></trkpt>
        <trkpt lat="29.1323599" lon="105.2508271"><ele>426.53</ele><time>2025-11-15T19:25:55.000Z</time></trkpt>
        <trkpt lat="29.1322609" lon="105.250887"><ele>428.15</ele><time>2025-11-15T19:26:09.000Z</time></trkpt>
        <trkpt lat="29.1321421" lon="105.2509295"><ele>428.49</ele><time>2025-11-15T19:26:20.000Z</time></trkpt>
        <trkpt lat="29.1320348" lon="105.2509567"><ele>429.44</ele><time>2025-11-15T19:26:42.000Z</time></trkpt>
        <trkpt lat="29.1319335" lon="105.2509832"><ele>430.87</ele><time>2025-11-15T19:27:00.000Z</time></trkpt>
        <trkpt lat="29.131863" lon="105.2510478"><ele>431.27</ele><time>2025-11-15T19:27:14.000Z</time></trkpt>
        <trkpt lat="29.1318013" lon="105.251133"><ele>431.46</ele><time>2025-11-15T19:27:30.000Z</time></trkpt>
        <trkpt lat="29.1317566" lon="105.2512391"><ele>432.18</ele><time>2025-11-15T19:27:50.000Z</time></trkpt>
        <trkpt lat="29.1316985" lon="105.2513235"><ele>432.65</ele><time>2025-11-15T19:28:04.000Z</time></trkpt>
        <trkpt lat="29.1316464" lon="105.2514184"><ele>432.96</ele><time>2025-11-15T19:28:20.000Z</time></trkpt>
        <trkpt lat="29.1316066" lon="105.2515148"><ele>432.72</ele><time>2025-11-15T19:28:36.000Z</time></trkpt>
        <trkpt lat="29.1315973" lon="105.2516209"><ele>433.02</ele><time>2025-11-15T19:28:50.000Z</time></trkpt>
        <trkpt lat="29.1315899" lon="105.2517337"><ele>433.47</ele><time>2025-11-15T19:29:16.000Z</time></trkpt>
        <trkpt lat="29.1315807" lon="105.2518435"><ele>434.42</ele><time>2025-11-15T19:29:30.000Z</time></trkpt>
        <trkpt lat="29.131519" lon="105.2519134"><ele>434.01</ele><time>2025-11-15T19:29:42.000Z</time></trkpt>
        <trkpt lat="29.131436" lon="105.2519762"><ele>434.2</ele><time>2025-11-15T19:29:56.000Z</time></trkpt>
        <trkpt lat="29.1313447" lon="105.2520283"><ele>434.89</ele><time>2025-11-15T19:30:10.000Z</time></trkpt>
        <trkpt lat="29.1312583" lon="105.2520962"><ele>435.86</ele><time>2025-11-15T19:30:24.000Z</time></trkpt>
        <trkpt lat="29.131174" lon="105.2521632"><ele>436.8</ele><time>2025-11-15T19:30:38.000Z</time></trkpt>
        <trkpt lat="29.131082" lon="105.2522162"><ele>436.82</ele><time>2025-11-15T19:30:52.000Z</time></trkpt>
        <trkpt lat="29.1309848" lon="105.2522103"><ele>436.78</ele><time>2025-11-15T19:31:22.000Z</time></trkpt>
        <trkpt lat="29.1308993" lon="105.252254"><ele>438.56</ele><time>2025-11-15T19:31:38.000Z</time></trkpt>
        <trkpt lat="29.1308277" lon="105.2523315"><ele>439.39</ele><time>2025-11-15T19:31:50.000Z</time></trkpt>
        <trkpt lat="29.1307614" lon="105.2524267"><ele>439.33</ele><time>2025-11-15T19:32:02.000Z</time></trkpt>
        <trkpt lat="29.130707" lon="105.252528"><ele>439.04</ele><time>2025-11-15T19:32:14.000Z</time></trkpt>
        <trkpt lat="29.1306962" lon="105.2526399"><ele>438.79</ele><time>2025-11-15T19:32:28.000Z</time></trkpt>
        <trkpt lat="29.1307228" lon="105.2527471"><ele>437.23</ele><time>2025-11-15T19:32:42.000Z</time></trkpt>
        <trkpt lat="29.1307593" lon="105.2528611"><ele>434.99</ele><time>2025-11-15T19:33:00.000Z</time></trkpt>
        <trkpt lat="29.1308361" lon="105.2529384"><ele>432.69</ele><time>2025-11-15T19:33:10.000Z</time></trkpt>
        <trkpt lat="29.1309035" lon="105.2530316"><ele>430.96</ele><time>2025-11-15T19:33:22.000Z</time></trkpt>
        <trkpt lat="29.1309383" lon="105.2531226"><ele>431.14</ele><time>2025-11-15T19:33:34.000Z</time></trkpt>
        <trkpt lat="29.1309374" lon="105.2532333"><ele>430.72</ele><time>2025-11-15T19:33:46.000Z</time></trkpt>
        <trkpt lat="29.1309248" lon="105.2533417"><ele>430.18</ele><time>2025-11-15T19:33:58.000Z</time></trkpt>
        <trkpt lat="29.1308972" lon="105.2534507"><ele>430.78</ele><time>2025-11-15T19:34:12.000Z</time></trkpt>
        <trkpt lat="29.1308956" lon="105.2535656"><ele>432.75</ele><time>2025-11-15T19:34:24.000Z</time></trkpt>
        <trkpt lat="29.1309438" lon="105.2536629"><ele>434.12</ele><time>2025-11-15T19:34:38.000Z</time></trkpt>
        <trkpt lat="29.1309783" lon="105.2537673"><ele>432.55</ele><time>2025-11-15T19:34:56.000Z</time></trkpt>
        <trkpt lat="29.1309988" lon="105.2538734"><ele>432.1</ele><time>2025-11-15T19:35:04.000Z</time></trkpt>
        <trkpt lat="29.1310035" lon="105.2539903"><ele>432.52</ele><time>2025-11-15T19:35:20.000Z</time></trkpt>
        <trkpt lat="29.1309936" lon="105.2541043"><ele>431.98</ele><time>2025-11-15T19:35:34.000Z</time></trkpt>
        <trkpt lat="29.1309657" lon="105.2542168"><ele>431.39</ele><time>2025-11-15T19:35:52.000Z</time></trkpt>
        <trkpt lat="29.1309287" lon="105.2543183"><ele>429.01</ele><time>2025-11-15T19:36:04.000Z</time></trkpt>
        <trkpt lat="29.1308757" lon="105.2544122"><ele>427.45</ele><time>2025-11-15T19:36:18.000Z</time></trkpt>
        <trkpt lat="29.13081" lon="105.2544993"><ele>425.96</ele><time>2025-11-15T19:36:30.000Z</time></trkpt>
        <trkpt lat="29.1307364" lon="105.2545789"><ele>424.33</ele><time>2025-11-15T19:36:42.000Z</time></trkpt>
        <trkpt lat="29.1306488" lon="105.2546301"><ele>423.84</ele><time>2025-11-15T19:36:54.000Z</time></trkpt>
        <trkpt lat="29.1305698" lon="105.2546926"><ele>423.46</ele><time>2025-11-15T19:37:06.000Z</time></trkpt>
        <trkpt lat="29.1305015" lon="105.2547769"><ele>422.46</ele><time>2025-11-15T19:37:20.000Z</time></trkpt>
        <trkpt lat="29.1304431" lon="105.2548648"><ele>420.99</ele><time>2025-11-15T19:37:32.000Z</time></trkpt>
        <trkpt lat="29.1303816" lon="105.2549572"><ele>419.98</ele><time>2025-11-15T19:37:46.000Z</time></trkpt>
        <trkpt lat="29.130327" lon="105.2550444"><ele>418.88</ele><time>2025-11-15T19:37:58.000Z</time></trkpt>
        <trkpt lat="29.1302501" lon="105.255108"><ele>419.58</ele><time>2025-11-15T19:38:10.000Z</time></trkpt>
        <trkpt lat="29.1301622" lon="105.2551548"><ele>421.64</ele><time>2025-11-15T19:38:24.000Z</time></trkpt>
        <trkpt lat="29.1300776" lon="105.2551997"><ele>423.65</ele><time>2025-11-15T19:38:36.000Z</time></trkpt>
        <trkpt lat="29.1299795" lon="105.2552153"><ele>424.9</ele><time>2025-11-15T19:38:50.000Z</time></trkpt>
        <trkpt lat="29.1298858" lon="105.2552273"><ele>425.64</ele><time>2025-11-15T19:39:02.000Z</time></trkpt>
        <trkpt lat="29.1297946" lon="105.255257"><ele>428.69</ele><time>2025-11-15T19:39:16.000Z</time></trkpt>
        <trkpt lat="29.1297016" lon="105.2552527"><ele>430.55</ele><time>2025-11-15T19:39:30.000Z</time></trkpt>
        <trkpt lat="29.1296061" lon="105.255239"><ele>433.45</ele><time>2025-11-15T19:39:44.000Z</time></trkpt>
        <trkpt lat="29.1295124" lon="105.2552227"><ele>436.46</ele><time>2025-11-15T19:40:00.000Z</time></trkpt>
        <trkpt lat="29.1294195" lon="105.2552072"><ele>436.95</ele><time>2025-11-15T19:40:12.000Z</time></trkpt>
        <trkpt lat="29.1293414" lon="105.2551473"><ele>438.28</ele><time>2025-11-15T19:40:24.000Z</time></trkpt>
        <trkpt lat="29.1293011" lon="105.255045"><ele>437.45</ele><time>2025-11-15T19:40:53.000Z</time></trkpt>
        <trkpt lat="29.1292293" lon="105.2549687"><ele>437.41</ele><time>2025-11-15T19:41:07.000Z</time></trkpt>
        <trkpt lat="29.129149" lon="105.2549085"><ele>433.89</ele><time>2025-11-15T19:41:19.000Z</time></trkpt>
        <trkpt lat="29.1290617" lon="105.254832"><ele>429.77</ele><time>2025-11-15T19:41:39.000Z</time></trkpt>
        <trkpt lat="29.1289799" lon="105.2547572"><ele>428.68</ele><time>2025-11-15T19:41:47.000Z</time></trkpt>
        <trkpt lat="29.1288924" lon="105.2547188"><ele>428.22</ele><time>2025-11-15T19:41:55.000Z</time></trkpt>
        <trkpt lat="29.1287984" lon="105.2546943"><ele>426.67</ele><time>2025-11-15T19:42:15.000Z</time></trkpt>
        <trkpt lat="29.1287207" lon="105.2547668"><ele>421.31</ele><time>2025-11-15T19:43:31.000Z</time></trkpt>
        <trkpt lat="29.1286072" lon="105.2547639"><ele>414.88</ele><time>2025-11-15T19:43:39.000Z</time></trkpt>
        <trkpt lat="29.1284884" lon="105.2547175"><ele>411.44</ele><time>2025-11-15T19:43:43.000Z</time></trkpt>
        <trkpt lat="29.1283647" lon="105.2546728"><ele>409.55</ele><time>2025-11-15T19:43:47.000Z</time></trkpt>
        <trkpt lat="29.1282423" lon="105.2546298"><ele>408.24</ele><time>2025-11-15T19:43:51.000Z</time></trkpt>
        <trkpt lat="29.1280792" lon="105.2547098"><ele>408.91</ele><time>2025-11-15T19:43:55.000Z</time></trkpt>
        <trkpt lat="29.1279658" lon="105.2547492"><ele>409.8</ele><time>2025-11-15T19:43:57.000Z</time></trkpt>
        <trkpt lat="29.1278336" lon="105.2547404"><ele>409.48</ele><time>2025-11-15T19:44:01.000Z</time></trkpt>
        <trkpt lat="29.1277023" lon="105.2547466"><ele>408.94</ele><time>2025-11-15T19:44:05.000Z</time></trkpt>
        <trkpt lat="29.1275789" lon="105.2547472"><ele>408.57</ele><time>2025-11-15T19:44:09.000Z</time></trkpt>
        <trkpt lat="29.1274759" lon="105.2546312"><ele>408.28</ele><time>2025-11-15T19:44:13.000Z</time></trkpt>
        <trkpt lat="29.1274163" lon="105.2545126"><ele>407.69</ele><time>2025-11-15T19:44:15.000Z</time></trkpt>
        <trkpt lat="29.1273416" lon="105.254421"><ele>406.57</ele><time>2025-11-15T19:44:17.000Z</time></trkpt>
        <trkpt lat="29.127264" lon="105.2543503"><ele>405.56</ele><time>2025-11-15T19:44:19.000Z</time></trkpt>
        <trkpt lat="29.1271562" lon="105.2543057"><ele>404.86</ele><time>2025-11-15T19:44:23.000Z</time></trkpt>
        <trkpt lat="29.1270348" lon="105.2543502"><ele>403.97</ele><time>2025-11-15T19:44:27.000Z</time></trkpt>
        <trkpt lat="29.126948" lon="105.2544288"><ele>402.59</ele><time>2025-11-15T19:44:29.000Z</time></trkpt>
        <trkpt lat="29.126856" lon="105.2544955"><ele>402</ele><time>2025-11-15T19:44:31.000Z</time></trkpt>
        <trkpt lat="29.1267531" lon="105.2545403"><ele>400.79</ele><time>2025-11-15T19:44:33.000Z</time></trkpt>
        <trkpt lat="29.1266485" lon="105.2545667"><ele>399.69</ele><time>2025-11-15T19:44:35.000Z</time></trkpt>
        <trkpt lat="29.1265507" lon="105.2545824"><ele>398.36</ele><time>2025-11-15T19:44:37.000Z</time></trkpt>
        <trkpt lat="29.12644" lon="105.2546635"><ele>397.17</ele><time>2025-11-15T19:44:41.000Z</time></trkpt>
        <trkpt lat="29.1263721" lon="105.25477"><ele>395.88</ele><time>2025-11-15T19:44:43.000Z</time></trkpt>
        <trkpt lat="29.1263205" lon="105.2548984"><ele>393.1</ele><time>2025-11-15T19:44:45.000Z</time></trkpt>
        <trkpt lat="29.1262775" lon="105.2550268"><ele>390.68</ele><time>2025-11-15T19:44:47.000Z</time></trkpt>
        <trkpt lat="29.126224" lon="105.255144"><ele>388.96</ele><time>2025-11-15T19:44:49.000Z</time></trkpt>
        <trkpt lat="29.1261553" lon="105.2552366"><ele>387.57</ele><time>2025-11-15T19:44:51.000Z</time></trkpt>
        <trkpt lat="29.1260775" lon="105.2553021"><ele>386.55</ele><time>2025-11-15T19:44:53.000Z</time></trkpt>
        <trkpt lat="29.1259502" lon="105.2552812"><ele>386.12</ele><time>2025-11-15T19:44:57.000Z</time></trkpt>
        <trkpt lat="29.1258539" lon="105.2552193"><ele>385.54</ele><time>2025-11-15T19:44:59.000Z</time></trkpt>
        <trkpt lat="29.125762" lon="105.2551503"><ele>384.87</ele><time>2025-11-15T19:45:01.000Z</time></trkpt>
        <trkpt lat="29.1256665" lon="105.2551029"><ele>384.43</ele><time>2025-11-15T19:45:03.000Z</time></trkpt>
        <trkpt lat="29.1255746" lon="105.255073"><ele>383.69</ele><time>2025-11-15T19:45:05.000Z</time></trkpt>
        <trkpt lat="29.1254808" lon="105.2550842"><ele>383.2</ele><time>2025-11-15T19:45:07.000Z</time></trkpt>
        <trkpt lat="29.1254043" lon="105.2551422"><ele>382.38</ele><time>2025-11-15T19:45:09.000Z</time></trkpt>
        <trkpt lat="29.1253396" lon="105.2552243"><ele>381.37</ele><time>2025-11-15T19:45:11.000Z</time></trkpt>
        <trkpt lat="29.1252837" lon="105.2553397"><ele>380.35</ele><time>2025-11-15T19:45:13.000Z</time></trkpt>
        <trkpt lat="29.1252258" lon="105.2554574"><ele>379.55</ele><time>2025-11-15T19:45:15.000Z</time></trkpt>
        <trkpt lat="29.1251709" lon="105.2555846"><ele>378.76</ele><time>2025-11-15T19:45:17.000Z</time></trkpt>
        <trkpt lat="29.1251219" lon="105.255704"><ele>377.65</ele><time>2025-11-15T19:45:19.000Z</time></trkpt>
        <trkpt lat="29.1250773" lon="105.2558102"><ele>376.43</ele><time>2025-11-15T19:45:21.000Z</time></trkpt>
        <trkpt lat="29.1250526" lon="105.2559265"><ele>375.87</ele><time>2025-11-15T19:45:23.000Z</time></trkpt>
        <trkpt lat="29.1250571" lon="105.2561292"><ele>375.2</ele><time>2025-11-15T19:45:27.000Z</time></trkpt>
        <trkpt lat="29.1251092" lon="105.2562641"><ele>373.57</ele><time>2025-11-15T19:45:29.000Z</time></trkpt>
        <trkpt lat="29.1251643" lon="105.2563918"><ele>371.28</ele><time>2025-11-15T19:45:31.000Z</time></trkpt>
        <trkpt lat="29.1252086" lon="105.2565096"><ele>370.12</ele><time>2025-11-15T19:45:33.000Z</time></trkpt>
        <trkpt lat="29.1252245" lon="105.2566481"><ele>368.8</ele><time>2025-11-15T19:45:35.000Z</time></trkpt>
        <trkpt lat="29.1252219" lon="105.2568012"><ele>367.94</ele><time>2025-11-15T19:45:37.000Z</time></trkpt>
        <trkpt lat="29.1252129" lon="105.2569688"><ele>366.01</ele><time>2025-11-15T19:45:39.000Z</time></trkpt>
        <trkpt lat="29.1251941" lon="105.2571602"><ele>363.93</ele><time>2025-11-15T19:45:41.000Z</time></trkpt>
        <trkpt lat="29.1251723" lon="105.25733"><ele>361.41</ele><time>2025-11-15T19:45:43.000Z</time></trkpt>
        <trkpt lat="29.1251558" lon="105.2574704"><ele>358.83</ele><time>2025-11-15T19:45:45.000Z</time></trkpt>
        <trkpt lat="29.1251405" lon="105.2575837"><ele>356.18</ele><time>2025-11-15T19:45:47.000Z</time></trkpt>
        <trkpt lat="29.1250392" lon="105.2577145"><ele>353.76</ele><time>2025-11-15T19:45:51.000Z</time></trkpt>
        <trkpt lat="29.1249054" lon="105.2577931"><ele>352.04</ele><time>2025-11-15T19:45:53.000Z</time></trkpt>
        <trkpt lat="29.1247526" lon="105.2578441"><ele>350.82</ele><time>2025-11-15T19:45:55.000Z</time></trkpt>
        <trkpt lat="29.1245993" lon="105.2578802"><ele>349.57</ele><time>2025-11-15T19:45:57.000Z</time></trkpt>
        <trkpt lat="29.1244501" lon="105.257915"><ele>348.38</ele><time>2025-11-15T19:45:59.000Z</time></trkpt>
        <trkpt lat="29.1243082" lon="105.2579436"><ele>347.29</ele><time>2025-11-15T19:46:01.000Z</time></trkpt>
        <trkpt lat="29.124176" lon="105.2579687"><ele>346.31</ele><time>2025-11-15T19:46:03.000Z</time></trkpt>
        <trkpt lat="29.1240533" lon="105.258005"><ele>345.28</ele><time>2025-11-15T19:46:05.000Z</time></trkpt>
        <trkpt lat="29.1239483" lon="105.2580742"><ele>344.44</ele><time>2025-11-15T19:46:07.000Z</time></trkpt>
        <trkpt lat="29.1238619" lon="105.2581854"><ele>344.12</ele><time>2025-11-15T19:46:09.000Z</time></trkpt>
        <trkpt lat="29.1237797" lon="105.2583169"><ele>343.6</ele><time>2025-11-15T19:46:11.000Z</time></trkpt>
        <trkpt lat="29.1237012" lon="105.2584518"><ele>342.85</ele><time>2025-11-15T19:46:13.000Z</time></trkpt>
        <trkpt lat="29.1236387" lon="105.2585951"><ele>342.38</ele><time>2025-11-15T19:46:15.000Z</time></trkpt>
        <trkpt lat="29.1235939" lon="105.2587517"><ele>341.64</ele><time>2025-11-15T19:46:17.000Z</time></trkpt>
        <trkpt lat="29.1235591" lon="105.2589106"><ele>340.85</ele><time>2025-11-15T19:46:19.000Z</time></trkpt>
        <trkpt lat="29.1235148" lon="105.2590497"><ele>340.11</ele><time>2025-11-15T19:46:21.000Z</time></trkpt>
        <trkpt lat="29.1234724" lon="105.2591648"><ele>339.22</ele><time>2025-11-15T19:46:23.000Z</time></trkpt>
        <trkpt lat="29.1234549" lon="105.2593424"><ele>338.47</ele><time>2025-11-15T19:46:27.000Z</time></trkpt>
        <trkpt lat="29.1234681" lon="105.2594882"><ele>337.93</ele><time>2025-11-15T19:46:29.000Z</time></trkpt>
        <trkpt lat="29.1234842" lon="105.2596236"><ele>337.4</ele><time>2025-11-15T19:46:31.000Z</time></trkpt>
        <trkpt lat="29.1234954" lon="105.259754"><ele>337.15</ele><time>2025-11-15T19:46:33.000Z</time></trkpt>
        <trkpt lat="29.1234959" lon="105.2598785"><ele>337.56</ele><time>2025-11-15T19:46:35.000Z</time></trkpt>
        <trkpt lat="29.1234881" lon="105.2600073"><ele>337.48</ele><time>2025-11-15T19:46:37.000Z</time></trkpt>
        <trkpt lat="29.1234816" lon="105.2601499"><ele>336.12</ele><time>2025-11-15T19:46:39.000Z</time></trkpt>
        <trkpt lat="29.1234721" lon="105.2602955"><ele>334.09</ele><time>2025-11-15T19:46:41.000Z</time></trkpt>
        <trkpt lat="29.1234692" lon="105.2604609"><ele>332.92</ele><time>2025-11-15T19:46:43.000Z</time></trkpt>
        <trkpt lat="29.123485" lon="105.2606158"><ele>331.59</ele><time>2025-11-15T19:46:45.000Z</time></trkpt>
        <trkpt lat="29.1234944" lon="105.2607481"><ele>330.76</ele><time>2025-11-15T19:46:47.000Z</time></trkpt>
        <trkpt lat="29.1234904" lon="105.2608799"><ele>330.15</ele><time>2025-11-15T19:46:49.000Z</time></trkpt>
        <trkpt lat="29.1234646" lon="105.2610252"><ele>329.71</ele><time>2025-11-15T19:46:51.000Z</time></trkpt>
        <trkpt lat="29.1234191" lon="105.2611732"><ele>329.55</ele><time>2025-11-15T19:46:53.000Z</time></trkpt>
        <trkpt lat="29.1233745" lon="105.2613084"><ele>329.21</ele><time>2025-11-15T19:46:55.000Z</time></trkpt>
        <trkpt lat="29.1233241" lon="105.2614487"><ele>328.2</ele><time>2025-11-15T19:46:57.000Z</time></trkpt>
        <trkpt lat="29.1232707" lon="105.2615734"><ele>328.05</ele><time>2025-11-15T19:46:59.000Z</time></trkpt>
        <trkpt lat="29.1232224" lon="105.2616885"><ele>328.13</ele><time>2025-11-15T19:47:01.000Z</time></trkpt>
        <trkpt lat="29.123164" lon="105.2618039"><ele>328.81</ele><time>2025-11-15T19:47:03.000Z</time></trkpt>
        <trkpt lat="29.1230434" lon="105.2619332"><ele>329.34</ele><time>2025-11-15T19:47:05.000Z</time></trkpt>
        <trkpt lat="29.122893" lon="105.2620682"><ele>329.96</ele><time>2025-11-15T19:47:07.000Z</time></trkpt>
        <trkpt lat="29.1227253" lon="105.2622084"><ele>329.37</ele><time>2025-11-15T19:47:09.000Z</time></trkpt>
        <trkpt lat="29.1225584" lon="105.2623466"><ele>328.57</ele><time>2025-11-15T19:47:11.000Z</time></trkpt>
        <trkpt lat="29.1224274" lon="105.2624983"><ele>328.41</ele><time>2025-11-15T19:47:13.000Z</time></trkpt>
        <trkpt lat="29.1223358" lon="105.2626684"><ele>328.11</ele><time>2025-11-15T19:47:15.000Z</time></trkpt>
        <trkpt lat="29.1222589" lon="105.2628908"><ele>327.94</ele><time>2025-11-15T19:47:17.000Z</time></trkpt>
        <trkpt lat="29.1221679" lon="105.2630788"><ele>327.58</ele><time>2025-11-15T19:47:19.000Z</time></trkpt>
        <trkpt lat="29.1220744" lon="105.2632051"><ele>327.3</ele><time>2025-11-15T19:47:21.000Z</time></trkpt>
        <trkpt lat="29.1220157" lon="105.2633127"><ele>327.02</ele><time>2025-11-15T19:47:23.000Z</time></trkpt>
        <trkpt lat="29.121948" lon="105.2634185"><ele>326.44</ele><time>2025-11-15T19:47:25.000Z</time></trkpt>
        <trkpt lat="29.1219821" lon="105.2635691"><ele>326.26</ele><time>2025-11-15T19:47:29.000Z</time></trkpt>
        <trkpt lat="29.1220624" lon="105.2636655"><ele>325.05</ele><time>2025-11-15T19:47:31.000Z</time></trkpt>
        <trkpt lat="29.1220974" lon="105.2637771"><ele>323.28</ele><time>2025-11-15T19:47:35.000Z</time></trkpt>
        <trkpt lat="29.122064" lon="105.2638753"><ele>321.57</ele><time>2025-11-15T19:47:37.000Z</time></trkpt>
        <trkpt lat="29.1220075" lon="105.26398"><ele>322.05</ele><time>2025-11-15T19:47:39.000Z</time></trkpt>
        <trkpt lat="29.1219524" lon="105.2640904"><ele>322.47</ele><time>2025-11-15T19:47:41.000Z</time></trkpt>
        <trkpt lat="29.1219086" lon="105.2641969"><ele>322.49</ele><time>2025-11-15T19:47:43.000Z</time></trkpt>
        <trkpt lat="29.1218715" lon="105.2643057"><ele>322.05</ele><time>2025-11-15T19:47:45.000Z</time></trkpt>
        <trkpt lat="29.1218152" lon="105.2644058"><ele>321.71</ele><time>2025-11-15T19:47:47.000Z</time></trkpt>
        <trkpt lat="29.121736" lon="105.2644943"><ele>321.21</ele><time>2025-11-15T19:47:49.000Z</time></trkpt>
        <trkpt lat="29.1216305" lon="105.2645644"><ele>320.82</ele><time>2025-11-15T19:47:51.000Z</time></trkpt>
        <trkpt lat="29.1215174" lon="105.2646168"><ele>320.25</ele><time>2025-11-15T19:47:53.000Z</time></trkpt>
        <trkpt lat="29.1213956" lon="105.2646617"><ele>319.35</ele><time>2025-11-15T19:47:55.000Z</time></trkpt>
        <trkpt lat="29.1212766" lon="105.2647326"><ele>318.34</ele><time>2025-11-15T19:47:57.000Z</time></trkpt>
        <trkpt lat="29.1211691" lon="105.2648119"><ele>317.1</ele><time>2025-11-15T19:47:59.000Z</time></trkpt>
        <trkpt lat="29.1210832" lon="105.2648752"><ele>314.67</ele><time>2025-11-15T19:48:01.000Z</time></trkpt>
        <trkpt lat="29.1209558" lon="105.2648901"><ele>313.09</ele><time>2025-11-15T19:48:05.000Z</time></trkpt>
        <trkpt lat="29.1208516" lon="105.2648468"><ele>312.66</ele><time>2025-11-15T19:48:07.000Z</time></trkpt>
        <trkpt lat="29.1207574" lon="105.2647747"><ele>312.64</ele><time>2025-11-15T19:48:09.000Z</time></trkpt>
        <trkpt lat="29.1206267" lon="105.2646795"><ele>312.18</ele><time>2025-11-15T19:48:13.000Z</time></trkpt>
        <trkpt lat="29.1204627" lon="105.2647021"><ele>311.98</ele><time>2025-11-15T19:48:17.000Z</time></trkpt>
        <trkpt lat="29.1203441" lon="105.2647584"><ele>311.29</ele><time>2025-11-15T19:48:19.000Z</time></trkpt>
        <trkpt lat="29.120209" lon="105.2648344"><ele>310.49</ele><time>2025-11-15T19:48:23.000Z</time></trkpt>
        <trkpt lat="29.1201246" lon="105.2647974"><ele>308.61</ele><time>2025-11-15T19:48:29.000Z</time></trkpt>
        <trkpt lat="29.1201782" lon="105.2646994"><ele>307.05</ele><time>2025-11-15T19:48:33.000Z</time></trkpt>
        <trkpt lat="29.1202448" lon="105.2645942"><ele>304.75</ele><time>2025-11-15T19:48:35.000Z</time></trkpt>
        <trkpt lat="29.1203252" lon="105.2644496"><ele>302.92</ele><time>2025-11-15T19:48:39.000Z</time></trkpt>
        <trkpt lat="29.120352" lon="105.2643833"><ele>301.39</ele><time>2025-11-15T19:48:43.000Z</time></trkpt>
        <trkpt lat="29.1203824" lon="105.2642795"><ele>300.43</ele><time>2025-11-15T19:49:05.000Z</time></trkpt>
        <trkpt lat="29.1204008" lon="105.264171"><ele>297.87</ele><time>2025-11-15T19:49:17.000Z</time></trkpt>
        <trkpt lat="29.1203999" lon="105.2640607"><ele>297.36</ele><time>2025-11-15T19:49:33.000Z</time></trkpt>
        <trkpt lat="29.1203999" lon="105.2640607"><ele>297.36</ele><time>2025-11-15T19:50:51.000Z</time></trkpt>
      </trkseg>
  </trk>
</gpx>